createdAt,value
2022-11-24T00:00:06.566Z,105.13
2022-11-24T00:02:33.039Z,102.65
2022-11-24T00:04:59.658Z,103.78
2022-11-24T00:07:26.297Z,107.25
2022-11-24T00:09:52.761Z,111.90
2022-11-24T00:12:19.162Z,115.85
2022-11-24T00:14:46.971Z,118.57
2022-11-24T00:17:13.518Z,130.20
2022-11-24T00:19:40.062Z,129.00
2022-11-24T00:22:06.456Z,126.88
2022-11-24T00:24:33.240Z,119.45
2022-11-24T00:26:59.823Z,116.32
2022-11-24T00:29:26.365Z,136.07
2022-11-24T00:31:52.822Z,118.50
2022-11-24T00:34:19.411Z,136.63
2022-11-24T00:36:45.816Z,134.25
2022-11-24T00:39:14.378Z,122.85
2022-11-24T00:41:42.193Z,116.80
2022-11-24T00:44:08.999Z,140.25
2022-11-24T00:46:35.972Z,139.10
2022-11-24T00:49:02.937Z,126.75
2022-11-24T00:51:30.330Z,130.20
2022-11-24T00:53:57.657Z,119.25
2022-11-24T00:56:25.499Z,115.72
2022-11-24T00:58:52.234Z,115.95
2022-11-24T01:01:21.992Z,148.40
2022-11-24T01:03:49.345Z,151.77
2022-11-24T01:06:18.936Z,149.68
2022-11-24T01:08:46.225Z,153.45
2022-11-24T01:11:12.654Z,117.05
2022-11-24T01:13:40.154Z,273.83
2022-11-24T01:16:12.762Z,196.85
2022-11-24T01:18:39.435Z,181.15
2022-11-24T01:21:10.114Z,302.00
2022-11-24T01:23:36.855Z,244.57
2022-11-24T01:26:08.080Z,197.77
2022-11-24T01:28:34.784Z,194.85
2022-11-24T01:31:03.677Z,156.48
2022-11-24T01:33:30.389Z,158.77
2022-11-24T01:36:00.566Z,165.70
2022-11-24T01:38:27.622Z,144.20
2022-11-24T01:41:07.854Z,204.50
2022-11-24T01:43:34.966Z,239.90
2022-11-24T01:46:26.763Z,142.60
2022-11-24T01:51:36.205Z,187.43
2022-11-24T01:54:16.009Z,205.75
2022-11-24T01:56:46.260Z,173.77
2022-11-24T01:59:15.742Z,162.98
2022-11-24T02:01:42.287Z,178.38
2022-11-24T02:04:13.265Z,148.43
2022-11-24T02:07:14.311Z,130.93
2022-11-24T02:09:49.140Z,145.57
2022-11-24T02:12:15.563Z,152.48
2022-11-24T02:14:44.057Z,152.77
2022-11-24T02:17:10.645Z,154.68
2022-11-24T02:19:39.861Z,127.45
2022-11-24T02:22:22.809Z,132.45
2022-11-24T02:25:14.378Z,137.15
2022-11-24T02:27:48.200Z,135.07
2022-11-24T02:30:18.887Z,136.88
2022-11-24T02:32:45.361Z,119.05
2022-11-24T02:35:12.640Z,140.25
2022-11-24T02:37:39.107Z,127.03
2022-11-24T02:40:06.525Z,120.20
2022-11-24T02:42:38.571Z,122.47
2022-11-24T02:45:05.599Z,113.78
2022-11-24T02:47:32.033Z,127.47
2022-11-24T02:49:58.425Z,133.70
2022-11-24T02:52:24.840Z,128.23
2022-11-24T02:54:51.311Z,125.03
2022-11-24T02:57:17.772Z,99.95
2022-11-24T02:59:44.613Z,166.07
2022-11-24T03:02:11.018Z,133.60
2022-11-24T03:04:37.470Z,111.70
2022-11-24T03:07:03.951Z,158.60
2022-11-24T03:09:30.491Z,179.35
2022-11-24T03:11:56.902Z,123.65
2022-11-24T03:14:23.379Z,156.93
2022-11-24T03:16:49.777Z,120.85
2022-11-24T03:19:16.182Z,114.47
2022-11-24T03:21:42.651Z,115.15
2022-11-24T03:24:09.078Z,112.65
2022-11-24T03:26:35.873Z,124.75
2022-11-24T03:29:02.477Z,110.90
2022-11-24T03:31:28.992Z,166.77
2022-11-24T03:33:55.387Z,166.40
2022-11-24T03:36:21.800Z,150.48
2022-11-24T03:38:48.274Z,122.05
2022-11-24T03:41:14.708Z,161.00
2022-11-24T03:43:44.086Z,128.02
2022-11-24T03:46:11.898Z,123.18
2022-11-24T03:48:38.879Z,125.72
2022-11-24T03:51:05.455Z,137.38
2022-11-24T03:53:33.536Z,121.60
2022-11-24T03:56:01.932Z,112.45
2022-11-24T03:58:29.601Z,114.13
2022-11-24T04:00:57.020Z,119.82
2022-11-24T04:03:24.541Z,142.10
2022-11-24T04:05:51.656Z,127.32
2022-11-24T04:08:18.243Z,129.18
2022-11-24T04:10:44.789Z,150.80
2022-11-24T04:13:14.208Z,114.72
2022-11-24T04:15:41.717Z,119.75
2022-11-24T04:18:09.907Z,104.50
2022-11-24T04:20:36.909Z,111.18
2022-11-24T04:23:05.061Z,100.80
2022-11-24T04:25:32.430Z,105.72
2022-11-24T04:27:58.933Z,102.97
2022-11-24T04:30:27.359Z,215.73
2022-11-24T04:32:53.913Z,131.27
2022-11-24T04:35:21.198Z,115.88
2022-11-24T04:37:47.719Z,107.88
2022-11-24T04:40:15.125Z,121.22
2022-11-24T04:42:41.782Z,110.40
2022-11-24T04:45:08.932Z,134.35
2022-11-24T04:47:35.482Z,156.85
2022-11-24T04:50:02.080Z,230.27
2022-11-24T04:52:30.435Z,138.05
2022-11-24T04:54:56.818Z,189.45
2022-11-24T04:57:25.625Z,121.72
2022-11-24T04:59:52.952Z,122.32
2022-11-24T05:02:20.305Z,151.20
2022-11-24T05:04:47.210Z,99.43
2022-11-24T05:07:18.740Z,191.50
2022-11-24T05:10:05.845Z,121.63
2022-11-24T05:12:32.525Z,104.55
2022-11-24T05:15:00.732Z,103.47
2022-11-24T05:17:36.129Z,95.68
2022-11-24T05:20:03.762Z,90.35
2022-11-24T05:22:30.230Z,91.80
2022-11-24T05:24:56.661Z,96.38
2022-11-24T05:27:23.718Z,109.95
2022-11-24T05:29:50.188Z,115.78
2022-11-24T05:32:16.780Z,121.50
2022-11-24T05:34:43.278Z,119.55
2022-11-24T05:37:09.717Z,209.00
2022-11-24T05:39:36.691Z,97.43
2022-11-24T05:42:25.025Z,96.63
2022-11-24T05:44:52.179Z,115.90
2022-11-24T05:47:19.531Z,155.45
2022-11-24T05:49:46.033Z,90.35
2022-11-24T05:52:12.682Z,128.27
2022-11-24T05:54:39.164Z,157.63
2022-11-24T05:57:05.631Z,116.82
2022-11-24T05:59:32.178Z,160.55
2022-11-24T06:01:58.782Z,96.35
2022-11-24T06:04:25.389Z,97.47
2022-11-24T06:06:52.170Z,93.40
2022-11-24T06:09:18.624Z,99.32
2022-11-24T06:11:46.755Z,117.38
2022-11-24T06:14:13.142Z,101.10
2022-11-24T06:16:39.583Z,98.00
2022-11-24T06:19:06.070Z,151.85
2022-11-24T06:21:32.497Z,93.00
2022-11-24T06:23:59.128Z,91.20
2022-11-24T06:26:25.634Z,91.93
2022-11-24T06:28:52.071Z,91.90
2022-11-24T06:31:18.702Z,86.88
2022-11-24T06:33:45.262Z,96.35
2022-11-24T06:36:14.353Z,99.55
2022-11-24T06:38:40.864Z,80.00
2022-11-24T06:41:11.938Z,85.18
2022-11-24T06:43:38.582Z,94.57
2022-11-24T06:46:05.189Z,75.35
2022-11-24T06:48:32.133Z,75.00
2022-11-24T06:51:00.597Z,73.38
2022-11-24T06:53:30.231Z,77.63
2022-11-24T06:56:00.577Z,81.63
2022-11-24T06:58:27.013Z,68.28
2022-11-24T07:00:53.960Z,70.13
2022-11-24T07:03:20.560Z,69.00
2022-11-24T07:05:47.146Z,76.85
2022-11-24T07:08:17.808Z,78.47
2022-11-24T07:10:44.648Z,82.88
2022-11-24T07:13:11.099Z,76.68
2022-11-24T07:15:37.640Z,86.93
2022-11-24T07:18:04.556Z,69.80
2022-11-24T07:20:31.368Z,75.28
2022-11-24T07:22:58.374Z,72.63
2022-11-24T07:25:27.692Z,71.85
2022-11-24T07:27:58.868Z,66.88
2022-11-24T07:30:27.003Z,72.75
2022-11-24T07:32:59.321Z,67.00
2022-11-24T07:35:25.799Z,68.75
2022-11-24T07:37:58.576Z,68.57
2022-11-24T07:40:26.639Z,66.90
2022-11-24T07:42:53.898Z,71.57
2022-11-24T07:45:20.632Z,74.03
2022-11-24T07:50:28.525Z,76.35
2022-11-24T07:55:44.054Z,70.75
2022-11-24T07:58:10.499Z,71.72
2022-11-24T08:00:36.917Z,75.03
2022-11-24T08:03:03.402Z,72.38
2022-11-24T08:05:29.891Z,73.70
2022-11-24T08:07:56.451Z,71.85
2022-11-24T08:10:23.245Z,77.53
2022-11-24T08:12:49.629Z,74.75
2022-11-24T08:15:16.157Z,69.78
2022-11-24T08:17:42.561Z,69.78
2022-11-24T08:20:09.826Z,72.68
2022-11-24T08:22:36.428Z,77.25
2022-11-24T08:25:02.935Z,73.15
2022-11-24T08:27:30.082Z,71.45
2022-11-24T08:29:56.483Z,65.82
2022-11-24T08:32:23.130Z,65.55
2022-11-24T08:34:49.667Z,69.20
2022-11-24T08:37:16.121Z,69.57
2022-11-24T08:39:42.582Z,68.53
2022-11-24T08:42:09.124Z,65.13
2022-11-24T08:44:35.979Z,67.55
2022-11-24T08:47:02.876Z,65.63
2022-11-24T08:49:29.490Z,75.00
2022-11-24T08:51:57.853Z,65.78
2022-11-24T08:54:25.621Z,66.90
2022-11-24T08:56:52.063Z,65.13
2022-11-24T08:59:18.624Z,71.55
2022-11-24T09:01:45.126Z,68.95
2022-11-24T09:04:11.646Z,67.47
2022-11-24T09:06:38.158Z,64.10
2022-11-24T09:09:04.561Z,62.38
2022-11-24T09:11:34.150Z,69.18
2022-11-24T09:14:01.159Z,67.03
2022-11-24T09:16:29.156Z,58.20
2022-11-24T09:19:01.503Z,66.95
2022-11-24T09:21:29.364Z,62.60
2022-11-24T09:23:56.227Z,61.90
2022-11-24T09:26:28.322Z,63.35
2022-11-24T09:28:56.058Z,65.20
2022-11-24T09:31:25.536Z,61.03
2022-11-24T09:33:52.721Z,63.17
2022-11-24T09:36:20.376Z,65.45
2022-11-24T09:38:47.240Z,64.95
2022-11-24T09:41:33.640Z,61.03
2022-11-24T09:46:40.574Z,58.00
2022-11-24T09:49:16.557Z,57.17
2022-11-24T09:51:46.267Z,56.63
2022-11-24T10:05:18.743Z,60.15
2022-11-24T10:08:16.449Z,63.78
2022-11-24T10:10:57.124Z,58.35
2022-11-24T10:13:46.688Z,67.85
2022-11-24T10:16:22.160Z,61.10
2022-11-24T10:19:00.779Z,59.72
2022-11-24T10:22:04.989Z,60.97
2022-11-24T10:25:13.586Z,63.22
2022-11-24T10:27:44.174Z,63.00
2022-11-24T10:30:15.442Z,57.95
2022-11-24T10:32:47.708Z,57.85
2022-11-24T10:38:06.877Z,62.42
2022-11-24T10:43:11.414Z,59.40
2022-11-24T10:45:39.446Z,59.95
2022-11-24T10:48:27.425Z,58.25
2022-11-24T10:51:06.345Z,57.15
2022-11-24T10:56:14.425Z,60.08
2022-11-24T10:58:40.915Z,51.20
2022-11-24T11:01:13.642Z,53.53
2022-11-24T11:03:48.883Z,58.50
2022-11-24T11:06:25.209Z,54.08
2022-11-24T11:09:17.700Z,52.83
2022-11-24T11:17:30.503Z,60.20
2022-11-24T11:20:03.091Z,59.85
2022-11-24T11:22:37.204Z,58.78
2022-11-24T11:25:03.645Z,53.55
2022-11-24T11:27:30.404Z,58.13
2022-11-24T11:35:50.816Z,52.92
2022-11-24T11:38:17.711Z,54.20
2022-11-24T11:40:44.434Z,60.42
2022-11-24T11:43:27.103Z,53.80
2022-11-24T11:46:03.809Z,53.50
2022-11-24T11:48:43.030Z,57.00
2022-11-24T11:51:25.559Z,49.85
2022-11-24T11:54:23.056Z,54.83
2022-11-24T11:57:01.315Z,51.95
2022-11-24T11:59:38.029Z,53.30
2022-11-24T12:02:22.860Z,55.42
2022-11-24T12:04:59.080Z,60.63
2022-11-24T12:07:46.212Z,61.20
2022-11-24T12:10:41.998Z,55.25
2022-11-24T12:13:38.144Z,58.97
2022-11-24T12:16:34.337Z,55.05
2022-11-24T12:19:46.459Z,56.78
2022-11-24T12:22:18.607Z,55.55
2022-11-24T12:24:56.577Z,55.13
2022-11-24T12:28:01.893Z,59.67
2022-11-24T12:30:40.415Z,53.35
2022-11-24T12:33:26.916Z,54.28
2022-11-24T12:36:04.408Z,62.38
2022-11-24T12:38:49.246Z,56.92
2022-11-24T12:43:59.727Z,54.60
2022-11-24T12:46:38.381Z,56.47
2022-11-24T12:49:31.594Z,57.90
2022-11-24T12:52:24.418Z,56.40
2022-11-24T12:54:51.031Z,50.90
2022-11-24T12:57:28.652Z,55.97
2022-11-24T13:00:14.314Z,53.47
2022-11-24T13:13:59.653Z,48.83
2022-11-24T13:16:59.520Z,53.20
2022-11-24T13:19:17.447Z,55.33
2022-11-24T13:27:27.627Z,57.15
2022-11-24T13:35:15.606Z,51.83
2022-11-24T13:43:02.491Z,48.75
2022-11-24T13:48:21.909Z,57.70
2022-11-24T13:50:56.098Z,51.75
2022-11-24T13:53:34.698Z,53.42
2022-11-24T13:58:51.248Z,53.08
2022-11-24T14:06:55.036Z,51.70
2022-11-24T14:14:56.986Z,52.85
2022-11-24T14:17:27.539Z,53.38
2022-11-24T14:19:58.307Z,50.28
2022-11-24T14:22:41.228Z,63.60
2022-11-24T14:30:31.597Z,57.25
2022-11-24T14:35:44.651Z,55.97
2022-11-24T14:40:54.390Z,55.08
2022-11-24T14:45:58.384Z,58.25
2022-11-24T14:48:28.064Z,67.22
2022-11-24T14:51:16.104Z,60.30
2022-11-24T14:53:49.004Z,63.80
2022-11-24T14:56:30.251Z,63.03
2022-11-24T14:58:57.860Z,64.65
2022-11-24T15:01:27.081Z,59.60
2022-11-24T15:07:01.092Z,60.53
2022-11-24T15:09:39.519Z,61.05
2022-11-24T15:12:08.686Z,65.00
2022-11-24T15:14:58.065Z,62.95
2022-11-24T15:17:28.077Z,66.45
2022-11-24T15:20:03.100Z,64.47
2022-11-24T15:22:29.476Z,57.45
2022-11-24T15:24:55.919Z,56.22
2022-11-24T15:27:22.320Z,62.92
2022-11-24T15:29:49.522Z,58.83
2022-11-24T15:32:16.492Z,61.60
2022-11-24T15:34:43.072Z,59.05
2022-11-24T15:37:09.506Z,65.70
2022-11-24T15:39:36.017Z,59.88
2022-11-24T15:42:02.500Z,63.20
2022-11-24T15:44:29.533Z,67.95
2022-11-24T15:46:56.044Z,60.83
2022-11-24T15:49:22.463Z,56.33
2022-11-24T15:51:48.925Z,59.75
2022-11-24T15:54:18.398Z,65.07
2022-11-24T15:56:44.868Z,69.25
2022-11-24T18:01:05.566Z,85.05
2022-11-24T18:03:32.781Z,73.93
2022-11-24T18:06:12.250Z,82.57
2022-11-24T18:08:43.686Z,76.38
2022-11-24T18:11:24.650Z,76.25
2022-11-24T18:14:00.146Z,73.43
2022-11-24T18:16:30.568Z,74.65
2022-11-24T18:19:14.935Z,71.80
2022-11-24T18:21:44.964Z,78.65
2022-11-24T18:24:19.667Z,75.25
2022-11-24T18:26:51.173Z,67.22
2022-11-24T18:32:01.499Z,75.55
2022-11-24T18:34:31.828Z,75.55
2022-11-24T18:37:07.801Z,73.75
2022-11-24T18:39:38.060Z,71.85
2022-11-24T18:42:04.813Z,74.13
2022-11-24T18:44:33.287Z,73.72
2022-11-24T18:47:00.029Z,74.20
2022-11-24T18:49:26.540Z,70.88
2022-11-24T18:51:53.005Z,70.57
2022-11-24T18:54:19.560Z,71.32
2022-11-24T18:56:45.965Z,76.20
2022-11-24T18:59:12.428Z,76.47
2022-11-24T19:01:38.989Z,72.95
2022-11-24T19:04:05.696Z,75.70
2022-11-24T19:06:35.125Z,76.55
2022-11-24T19:09:05.512Z,81.38
2022-11-24T19:11:35.551Z,78.28
2022-11-24T19:14:06.953Z,79.53
2022-11-24T19:16:34.355Z,80.65
2022-11-24T19:19:02.557Z,78.38
2022-11-24T19:21:34.512Z,83.50
2022-11-24T19:24:05.471Z,91.40
2022-11-24T19:26:33.155Z,84.82
2022-11-24T19:29:00.879Z,84.50
2022-11-24T19:31:27.463Z,83.25
2022-11-24T19:33:54.682Z,82.85
2022-11-24T19:36:22.779Z,87.00
2022-11-24T19:38:51.349Z,83.15
2022-11-24T19:41:21.410Z,79.88
2022-11-24T19:43:48.426Z,84.65
2022-11-24T19:46:17.576Z,84.30
2022-11-24T19:48:46.258Z,85.30
2022-11-24T19:51:15.932Z,81.30
2022-11-24T19:53:43.434Z,86.82
2022-11-24T19:56:15.427Z,83.18
2022-11-24T19:58:42.663Z,78.13
2022-11-24T20:01:17.736Z,76.60
2022-11-24T20:03:45.626Z,83.90
2022-11-24T20:06:14.037Z,79.53
2022-11-24T20:08:42.284Z,81.60
2022-11-24T20:11:11.458Z,84.32
2022-11-24T20:13:40.561Z,78.03
2022-11-24T20:16:10.940Z,81.03
2022-11-24T20:18:46.596Z,83.25
2022-11-24T20:21:16.129Z,89.13
2022-11-24T20:23:43.610Z,91.10
2022-11-24T20:26:15.478Z,86.72
2022-11-24T20:28:42.192Z,82.93
2022-11-24T20:31:11.810Z,84.40
2022-11-24T20:33:39.108Z,82.03
2022-11-24T20:36:08.427Z,80.25
2022-11-24T20:38:36.638Z,93.72
2022-11-24T20:41:09.873Z,87.07
2022-11-24T20:43:37.663Z,80.05
2022-11-24T20:46:06.063Z,83.25
2022-11-24T20:48:33.569Z,84.97
2022-11-24T20:51:05.328Z,87.15
2022-11-24T20:53:31.803Z,85.95
2022-11-24T20:56:06.624Z,88.70
2022-11-24T20:58:34.808Z,81.75
2022-11-24T21:01:18.409Z,86.13
2022-11-24T21:03:46.367Z,87.00
2022-11-24T21:06:14.152Z,88.25
2022-11-24T21:08:42.038Z,86.00
2022-11-24T21:11:13.926Z,88.10
2022-11-24T21:13:44.332Z,86.07
2022-11-24T21:16:17.811Z,87.70
2022-11-24T21:18:45.838Z,100.82
2022-11-24T21:21:13.349Z,118.05
2022-11-24T21:23:40.139Z,77.90
2022-11-24T21:26:13.147Z,80.28
2022-11-24T21:28:42.808Z,121.07
2022-11-24T21:31:12.525Z,100.05
2022-11-24T21:33:45.413Z,148.18
2022-11-24T21:36:14.692Z,209.63
2022-11-24T21:38:42.769Z,173.55
2022-11-24T21:41:11.258Z,137.25
2022-11-24T21:43:38.578Z,174.05
2022-11-24T21:46:07.616Z,180.27
2022-11-24T21:48:35.704Z,146.52
2022-11-24T21:51:07.173Z,148.93
2022-11-24T21:53:36.380Z,130.05
2022-11-24T21:56:05.891Z,131.88
2022-11-24T21:58:33.621Z,142.00
2022-11-24T22:01:10.424Z,148.38
2022-11-24T22:03:36.986Z,105.80
2022-11-24T22:06:03.768Z,141.73
2022-11-24T22:08:31.643Z,96.85
2022-11-24T22:11:03.884Z,113.57
2022-11-24T22:13:30.582Z,92.22
2022-11-24T22:16:01.880Z,86.10
2022-11-24T22:18:33.366Z,109.00
2022-11-24T22:21:00.519Z,81.68
2022-11-24T22:23:27.048Z,110.00
2022-11-24T22:25:53.519Z,146.32
2022-11-24T22:28:19.950Z,69.53
2022-11-24T22:30:46.545Z,68.97
2022-11-24T22:33:13.812Z,60.78
2022-11-24T22:35:40.272Z,66.40
2022-11-24T22:38:06.765Z,62.50
2022-11-24T22:40:33.350Z,61.28
2022-11-24T22:42:59.948Z,65.85
2022-11-24T22:45:26.499Z,65.55
2022-11-24T22:47:56.213Z,60.10
2022-11-24T22:50:22.655Z,60.63
2022-11-24T22:52:50.022Z,60.95
2022-11-24T22:55:16.500Z,50.25
2022-11-24T22:57:47.398Z,51.40
2022-11-24T23:00:18.258Z,52.08
2022-11-24T23:02:44.965Z,51.00
2022-11-24T23:05:11.507Z,50.65
2022-11-24T23:07:38.033Z,47.10
2022-11-24T23:10:04.694Z,54.95
2022-11-24T23:12:31.140Z,50.00
2022-11-24T23:14:57.587Z,52.17
2022-11-24T23:17:24.392Z,54.47
2022-11-24T23:19:50.863Z,51.45
2022-11-24T23:22:17.301Z,45.13
2022-11-24T23:24:43.757Z,48.85
2022-11-24T23:27:10.255Z,46.13
2022-11-24T23:29:36.753Z,45.03
2022-11-24T23:32:03.334Z,44.33
2022-11-24T23:34:29.829Z,41.85
2022-11-24T23:36:56.418Z,39.30
2022-11-24T23:39:23.397Z,40.10
2022-11-24T23:41:49.792Z,39.83
2022-11-24T23:44:16.219Z,41.17
2022-11-24T23:46:42.630Z,41.92
2022-11-24T23:49:09.074Z,37.50
2022-11-24T23:51:35.569Z,43.97
2022-11-24T23:54:02.011Z,44.45
2022-11-24T23:56:33.074Z,41.03
2022-11-24T23:59:00.916Z,44.30
